createdAt,value
2018-02-23T00:01:17.565Z,89.00
2018-02-23T00:03:45.006Z,89.10
2018-02-23T00:06:12.562Z,90.00
2018-02-23T00:08:40.200Z,90.40
2018-02-23T00:11:08.433Z,91.30
2018-02-23T00:13:35.911Z,91.30
2018-02-23T00:16:03.380Z,91.70
2018-02-23T00:18:31.614Z,92.20
2018-02-23T00:20:59.089Z,92.20
2018-02-23T00:23:26.581Z,92.60
2018-02-23T00:28:29.432Z,92.90
2018-02-23T00:30:56.923Z,92.80
2018-02-23T00:33:25.148Z,93.40
2018-02-23T00:35:52.633Z,93.30
2018-02-23T00:38:20.101Z,93.70
2018-02-23T00:40:47.648Z,93.80
2018-02-23T00:43:15.886Z,94.00
2018-02-23T00:45:43.365Z,94.00
2018-02-23T00:48:10.829Z,94.30
2018-02-23T00:50:38.301Z,94.40
2018-02-23T00:53:05.895Z,94.60
2018-02-23T00:55:34.145Z,94.80
2018-02-23T00:58:01.802Z,94.70
2018-02-23T01:00:30.777Z,95.00
2018-02-23T01:02:58.254Z,95.00
2018-02-23T01:05:25.738Z,95.20
2018-02-23T01:07:54.065Z,95.60
2018-02-23T01:10:21.544Z,95.50
2018-02-23T01:12:49.854Z,96.00
2018-02-23T01:15:17.330Z,96.00
2018-02-23T01:17:44.841Z,96.00
2018-02-23T01:20:12.293Z,96.00
2018-02-23T01:22:40.575Z,96.10
2018-02-23T01:25:08.151Z,96.10
2018-02-23T01:27:36.382Z,96.00
2018-02-23T01:30:03.873Z,96.10
2018-02-23T01:32:32.099Z,96.40
2018-02-23T01:34:59.585Z,96.40
2018-02-23T01:37:28.553Z,96.70
2018-02-23T01:39:56.045Z,96.60
2018-02-23T01:42:23.504Z,96.80
2018-02-23T01:44:50.981Z,97.10
2018-02-23T01:47:19.224Z,97.00
2018-02-23T01:49:47.447Z,97.30
2018-02-23T01:52:14.920Z,97.30
2018-02-23T01:54:42.416Z,97.30
2018-02-23T01:57:09.974Z,97.60
2018-02-23T01:59:38.458Z,97.30
2018-02-23T02:02:05.942Z,97.50
2018-02-23T02:04:34.170Z,97.70
2018-02-23T02:07:01.643Z,97.70
2018-02-23T02:09:29.893Z,98.00
2018-02-23T02:11:57.474Z,98.00
2018-02-23T02:14:26.477Z,97.80
2018-02-23T02:16:53.955Z,97.80
2018-02-23T02:19:22.178Z,97.90
2018-02-23T02:21:49.665Z,98.00
2018-02-23T02:24:17.129Z,97.90
2018-02-23T02:26:44.605Z,97.90
2018-02-23T02:29:12.831Z,97.90
2018-02-23T02:31:40.344Z,97.90
2018-02-23T02:34:09.057Z,97.90
2018-02-23T02:36:36.631Z,97.90
2018-02-23T02:39:04.104Z,97.80
2018-02-23T02:41:33.269Z,97.90
2018-02-23T02:44:00.892Z,97.90
2018-02-23T02:46:29.134Z,97.90
2018-02-23T02:48:56.618Z,97.80
2018-02-23T02:51:24.850Z,97.60
2018-02-23T02:53:52.337Z,97.60
2018-02-23T02:56:19.794Z,97.90
2018-02-23T02:58:47.329Z,97.80
2018-02-23T03:01:14.970Z,97.70
2018-02-23T03:03:42.677Z,97.90
2018-02-23T03:06:10.162Z,97.90
2018-02-23T03:08:38.396Z,98.00
2018-02-23T03:11:06.379Z,97.90
2018-02-23T03:13:34.690Z,97.80
2018-02-23T03:16:02.165Z,97.90
2018-02-23T03:18:29.745Z,97.90
2018-02-23T03:20:57.397Z,98.00
2018-02-23T03:23:24.970Z,98.30
2018-02-23T03:25:52.463Z,98.60
2018-02-23T03:28:20.690Z,98.50
2018-02-23T03:30:48.166Z,98.40
2018-02-23T03:33:15.650Z,98.60
2018-02-23T03:35:43.902Z,98.70
2018-02-23T03:38:11.464Z,98.70
2018-02-23T03:40:39.088Z,98.40
2018-02-23T03:43:06.671Z,98.60
2018-02-23T03:45:34.152Z,98.60
2018-02-23T03:48:02.124Z,98.50
2018-02-23T03:50:30.372Z,98.80
2018-02-23T03:52:58.385Z,98.70
2018-02-23T03:55:26.809Z,98.90
2018-02-23T03:57:54.305Z,98.90
2018-02-23T04:00:23.285Z,98.90
2018-02-23T04:02:50.748Z,98.90
2018-02-23T04:05:18.242Z,99.10
2018-02-23T04:07:45.841Z,99.20
2018-02-23T04:10:13.407Z,98.90
2018-02-23T04:12:40.877Z,98.90
2018-02-23T04:15:08.384Z,98.90
2018-02-23T04:17:35.850Z,98.70
2018-02-23T04:20:03.337Z,98.50
2018-02-23T04:22:30.819Z,98.20
2018-02-23T04:24:59.050Z,98.00
2018-02-23T04:27:26.517Z,98.00
2018-02-23T04:29:53.979Z,97.80
2018-02-23T04:32:21.546Z,97.80
2018-02-23T04:34:50.305Z,98.00
2018-02-23T04:37:17.782Z,98.00
2018-02-23T04:39:45.382Z,98.10
2018-02-23T04:42:13.730Z,98.40
2018-02-23T04:44:41.194Z,98.40
2018-02-23T04:47:08.681Z,98.60
2018-02-23T04:49:36.911Z,98.50
2018-02-23T04:52:04.386Z,98.50
2018-02-23T04:54:31.875Z,98.60
2018-02-23T04:56:59.365Z,99.00
2018-02-23T04:59:26.841Z,99.20
2018-02-23T05:01:54.307Z,99.40
2018-02-23T05:04:21.788Z,99.50
2018-02-23T05:06:50.008Z,99.40
2018-02-23T05:09:17.489Z,99.40
2018-02-23T05:11:45.030Z,99.70
2018-02-23T05:14:12.505Z,99.80
2018-02-23T05:16:39.981Z,99.80
2018-02-23T05:19:07.600Z,99.50
2018-02-23T05:21:35.049Z,99.30
2018-02-23T05:24:02.579Z,98.80
2018-02-23T05:26:29.998Z,98.60
2018-02-23T05:28:57.478Z,98.40
2018-02-23T05:31:25.766Z,98.60
2018-02-23T05:33:54.014Z,98.60
2018-02-23T05:36:21.625Z,98.60
2018-02-23T05:38:49.100Z,98.50
2018-02-23T05:41:16.563Z,98.60
2018-02-23T05:43:44.045Z,98.60
2018-02-23T05:46:11.518Z,98.60
2018-02-23T05:48:39.774Z,98.50
2018-02-23T05:51:07.265Z,98.30
2018-02-23T05:53:35.589Z,98.30
2018-02-23T05:56:03.063Z,98.30
2018-02-23T05:58:30.525Z,98.10
2018-02-23T06:00:58.008Z,97.90
2018-02-23T06:03:26.239Z,97.70
2018-02-23T06:05:53.709Z,97.70
2018-02-23T06:08:21.196Z,97.80
2018-02-23T06:10:49.446Z,97.10
2018-02-23T06:13:16.919Z,97.10
2018-02-23T06:15:50.953Z,96.90
2018-02-23T06:18:35.251Z,96.90
2018-02-23T06:21:02.717Z,96.70
2018-02-23T06:23:30.201Z,96.60
2018-02-23T06:25:58.449Z,96.30
2018-02-23T06:28:25.913Z,96.30
2018-02-23T06:30:53.426Z,96.00
2018-02-23T06:33:21.617Z,95.60
2018-02-23T06:35:49.073Z,95.50
2018-02-23T06:38:16.552Z,95.40
2018-02-23T06:40:44.031Z,95.30
2018-02-23T06:43:12.258Z,95.50
2018-02-23T06:45:39.797Z,95.20
2018-02-23T06:48:07.281Z,95.10
2018-02-23T06:50:34.752Z,95.10
2018-02-23T06:53:02.229Z,95.20
2018-02-23T06:55:29.692Z,95.20
2018-02-23T06:57:57.935Z,95.10
2018-02-23T07:00:25.516Z,95.10
2018-02-23T07:02:52.986Z,94.80
2018-02-23T07:05:21.224Z,95.00
2018-02-23T07:07:48.706Z,95.00
2018-02-23T07:10:16.165Z,94.90
2018-02-23T07:12:43.649Z,94.90
2018-02-23T07:15:11.127Z,94.70
2018-02-23T07:17:38.653Z,91.80
2018-02-23T07:20:07.689Z,74.00
2018-02-23T07:22:35.158Z,73.90
2018-02-23T07:25:02.639Z,67.00
2018-02-23T07:27:30.101Z,60.40
2018-02-23T07:29:57.591Z,55.30
2018-02-23T07:32:25.076Z,52.30
2018-02-23T07:34:52.564Z,49.40
2018-02-23T07:37:20.078Z,46.90
2018-02-23T07:39:47.554Z,44.10
2018-02-23T07:42:15.034Z,43.70
2018-02-23T07:44:44.017Z,39.60
2018-02-23T07:47:11.489Z,39.60
2018-02-23T07:49:38.974Z,39.50
2018-02-23T07:52:07.213Z,39.90
2018-02-23T07:54:34.695Z,40.00
2018-02-23T07:57:03.059Z,43.60
2018-02-23T07:59:30.533Z,43.50
2018-02-23T08:01:58.770Z,49.10
2018-02-23T08:04:26.249Z,49.10
2018-02-23T08:06:53.713Z,52.30
2018-02-23T08:09:21.235Z,54.30
2018-02-23T08:11:48.854Z,53.90
2018-02-23T08:14:17.103Z,55.40
2018-02-23T08:16:44.560Z,55.50
2018-02-23T08:19:12.824Z,55.60
2018-02-23T08:21:40.282Z,55.60
2018-02-23T08:24:07.745Z,55.50
2018-02-23T08:26:40.312Z,56.30
2018-02-23T08:29:07.777Z,57.70
2018-02-23T08:31:35.261Z,58.40
2018-02-23T08:34:03.493Z,58.00
2018-02-23T08:36:30.969Z,57.90
2018-02-23T08:38:58.471Z,58.00
2018-02-23T08:41:25.938Z,58.50
2018-02-23T08:43:53.405Z,58.20
2018-02-23T08:46:20.880Z,57.90
2018-02-23T08:48:48.384Z,60.00
2018-02-23T08:51:15.875Z,59.60
2018-02-23T08:53:43.337Z,59.30
2018-02-23T08:56:10.825Z,59.10
2018-02-23T08:58:38.289Z,58.80
2018-02-23T09:01:06.523Z,58.40
2018-02-23T09:03:34.001Z,58.10
2018-02-23T09:06:01.461Z,56.30
2018-02-23T09:08:28.946Z,57.60
2018-02-23T09:10:57.205Z,58.50
2018-02-23T09:13:24.817Z,58.50
2018-02-23T09:15:52.393Z,57.10
2018-02-23T09:18:19.883Z,56.60
2018-02-23T09:20:47.354Z,56.70
2018-02-23T09:23:15.607Z,55.60
2018-02-23T09:25:43.081Z,55.60
2018-02-23T09:28:11.335Z,54.30
2018-02-23T09:30:39.668Z,54.30
2018-02-23T09:33:07.148Z,54.40
2018-02-23T09:35:34.622Z,53.80
2018-02-23T09:38:02.162Z,53.70
2018-02-23T09:40:29.765Z,53.60
2018-02-23T09:42:57.250Z,53.40
2018-02-23T09:45:24.817Z,53.00
2018-02-23T09:47:52.293Z,53.00
2018-02-23T09:50:19.789Z,52.20
2018-02-23T09:52:47.249Z,51.90
2018-02-23T09:55:14.733Z,51.70
2018-02-23T09:57:42.304Z,51.80
2018-02-23T10:00:09.797Z,50.20
2018-02-23T10:02:37.278Z,50.80
2018-02-23T10:05:04.758Z,50.40
2018-02-23T10:07:33.115Z,49.10
2018-02-23T10:10:01.392Z,48.50
2018-02-23T10:12:29.352Z,48.50
2018-02-23T10:14:57.711Z,49.20
2018-02-23T10:17:25.373Z,50.20
2018-02-23T10:19:53.046Z,50.30
2018-02-23T10:22:20.624Z,49.70
2018-02-23T10:24:48.157Z,48.10
2018-02-23T10:27:15.797Z,48.10
2018-02-23T10:29:43.320Z,47.90
2018-02-23T10:32:11.577Z,48.50
2018-02-23T10:34:39.040Z,48.50
2018-02-23T10:37:07.293Z,46.30
2018-02-23T10:39:34.875Z,46.20
2018-02-23T10:42:03.133Z,46.30
2018-02-23T10:44:30.598Z,46.20
2018-02-23T10:46:58.070Z,45.10
2018-02-23T10:49:26.301Z,45.50
2018-02-23T10:51:53.779Z,45.50
2018-02-23T10:54:21.256Z,46.00
2018-02-23T10:56:49.518Z,45.60
2018-02-23T10:59:17.767Z,46.20
2018-02-23T11:01:45.239Z,46.10
2018-02-23T11:04:12.720Z,46.20
2018-02-23T11:06:41.164Z,43.90
2018-02-23T11:09:08.649Z,44.00
2018-02-23T11:11:36.888Z,44.30
2018-02-23T11:14:04.338Z,44.30
2018-02-23T11:16:31.809Z,43.50
2018-02-23T11:18:59.279Z,44.30
2018-02-23T11:21:26.745Z,44.30
2018-02-23T11:23:55.129Z,44.40
2018-02-23T11:26:23.373Z,44.90
2018-02-23T11:28:50.832Z,44.90
2018-02-23T11:31:18.321Z,44.40
2018-02-23T11:33:46.557Z,44.60
2018-02-23T11:36:14.023Z,44.60
2018-02-23T11:38:41.654Z,43.50
2018-02-23T11:41:09.299Z,44.60
2018-02-23T11:43:36.907Z,44.20
2018-02-23T11:46:04.640Z,44.70
2018-02-23T11:48:32.269Z,44.60
2018-02-23T11:51:00.500Z,44.10
2018-02-23T11:53:27.977Z,44.10
2018-02-23T11:55:56.212Z,43.80
2018-02-23T11:58:23.699Z,43.70
2018-02-23T12:00:51.194Z,43.60
2018-02-23T12:03:18.698Z,43.10
2018-02-23T12:05:46.333Z,41.80
2018-02-23T12:08:13.914Z,41.50
2018-02-23T12:10:41.456Z,41.20
2018-02-23T12:13:08.969Z,42.60
2018-02-23T12:15:37.229Z,39.70
2018-02-23T12:18:04.705Z,40.10
2018-02-23T12:20:32.174Z,39.30
2018-02-23T12:23:00.408Z,36.70
2018-02-23T12:25:27.934Z,36.70
2018-02-23T12:27:55.536Z,35.50
2018-02-23T12:30:23.032Z,34.00
2018-02-23T12:32:51.277Z,35.70
2018-02-23T12:35:18.898Z,35.70
2018-02-23T12:37:47.373Z,35.70
2018-02-23T12:40:14.850Z,34.60
2018-02-23T12:42:42.318Z,34.20
2018-02-23T12:45:09.798Z,33.30
2018-02-23T12:47:37.260Z,33.40
2018-02-23T12:50:05.509Z,32.90
2018-02-23T12:52:32.985Z,32.90
2018-02-23T12:55:00.475Z,32.30
2018-02-23T12:57:27.954Z,34.10
2018-02-23T12:59:55.431Z,35.50
2018-02-23T13:02:22.894Z,35.10
2018-02-23T13:04:50.363Z,35.90
2018-02-23T13:07:18.079Z,36.10
2018-02-23T13:09:45.543Z,36.20
2018-02-23T13:12:13.023Z,36.80
2018-02-23T13:14:46.130Z,36.10
2018-02-23T13:17:13.601Z,35.40
2018-02-23T13:19:41.820Z,36.60
2018-02-23T13:22:09.409Z,36.20
2018-02-23T13:24:36.881Z,35.40
2018-02-23T13:27:11.590Z,36.90
2018-02-23T13:29:39.155Z,36.90
2018-02-23T13:32:06.687Z,37.00
2018-02-23T13:34:34.307Z,37.20
2018-02-23T13:37:02.761Z,37.30
2018-02-23T13:39:30.476Z,37.20
2018-02-23T13:42:00.011Z,38.40
2018-02-23T13:44:27.518Z,37.90
2018-02-23T13:46:55.769Z,38.70
2018-02-23T13:49:23.248Z,38.60
2018-02-23T13:51:51.675Z,38.30
2018-02-23T13:54:24.252Z,38.30
2018-02-23T13:56:51.750Z,38.40
2018-02-23T13:59:20.015Z,38.40
2018-02-23T14:01:47.477Z,37.80
2018-02-23T14:04:15.723Z,38.40
2018-02-23T14:06:48.105Z,38.00
2018-02-23T14:09:15.649Z,37.90
2018-02-23T14:11:43.121Z,38.00
2018-02-23T14:14:10.649Z,37.70
2018-02-23T14:16:38.128Z,37.60
2018-02-23T14:19:05.635Z,37.70
2018-02-23T14:21:33.961Z,38.50
2018-02-23T14:24:01.570Z,37.90
2018-02-23T14:26:29.224Z,38.30
2018-02-23T14:28:57.630Z,38.90
2018-02-23T14:31:25.129Z,38.90
2018-02-23T14:33:52.579Z,38.70
2018-02-23T14:36:20.906Z,37.90
2018-02-23T14:38:48.366Z,37.90
2018-02-23T14:41:15.844Z,39.00
2018-02-23T14:43:43.470Z,38.00
2018-02-23T14:46:11.706Z,38.40
2018-02-23T14:48:51.116Z,38.40
2018-02-23T14:51:18.588Z,38.80
2018-02-23T14:53:46.066Z,38.80
2018-02-23T14:56:13.550Z,38.70
2018-02-23T14:58:41.857Z,38.60
2018-02-23T15:01:11.092Z,39.40
2018-02-23T15:03:38.555Z,39.40
2018-02-23T15:06:06.357Z,39.50
2018-02-23T15:08:34.728Z,39.80
2018-02-23T15:11:02.959Z,39.70
2018-02-23T15:13:30.449Z,39.70
2018-02-23T15:15:57.957Z,39.50
2018-02-23T15:18:25.438Z,39.10
2018-02-23T15:20:52.905Z,40.20
2018-02-23T15:23:20.473Z,40.90
2018-02-23T15:25:47.941Z,40.80
2018-02-23T15:28:16.228Z,41.10
2018-02-23T15:30:56.388Z,41.10
2018-02-23T15:33:23.865Z,41.00
2018-02-23T15:35:51.326Z,40.80
2018-02-23T15:38:18.923Z,41.10
2018-02-23T15:40:46.386Z,41.70
2018-02-23T15:43:14.641Z,42.80
2018-02-23T15:45:42.142Z,42.80
2018-02-23T15:48:17.078Z,43.40
2018-02-23T15:50:50.965Z,43.50
2018-02-23T15:53:18.451Z,43.40
2018-02-23T15:55:46.706Z,44.60
2018-02-23T15:58:30.793Z,44.40
2018-02-23T16:00:58.286Z,44.40
2018-02-23T16:03:25.776Z,44.80
2018-02-23T16:05:54.022Z,45.30
2018-02-23T16:08:21.508Z,45.30
2018-02-23T16:10:49.804Z,45.80
2018-02-23T16:13:17.480Z,45.90
2018-02-23T16:15:45.099Z,46.00
2018-02-23T16:18:13.330Z,45.70
2018-02-23T16:20:41.401Z,45.70
2018-02-23T16:23:08.908Z,45.90
2018-02-23T16:25:37.154Z,46.50
2018-02-23T16:28:04.613Z,46.40
2018-02-23T16:30:32.116Z,46.60
2018-02-23T16:33:00.362Z,47.10
2018-02-23T16:35:27.881Z,47.10
2018-02-23T16:37:55.364Z,47.20
2018-02-23T16:40:22.852Z,47.50
2018-02-23T16:42:51.073Z,47.30
2018-02-23T16:45:18.566Z,47.30
2018-02-23T16:47:46.034Z,47.50
2018-02-23T16:50:14.274Z,47.70
2018-02-23T16:52:41.762Z,47.70
2018-02-23T16:55:09.997Z,47.80
2018-02-23T16:57:37.873Z,47.60
2018-02-23T17:00:05.447Z,48.20
2018-02-23T17:02:32.930Z,48.10
2018-02-23T17:05:01.151Z,48.40
2018-02-23T17:07:28.754Z,48.40
2018-02-23T17:09:56.228Z,48.30
2018-02-23T17:12:24.473Z,48.40
2018-02-23T17:14:52.096Z,48.40
2018-02-23T17:17:19.652Z,48.60
2018-02-23T17:19:47.114Z,48.50
2018-02-23T17:22:14.601Z,48.60
2018-02-23T17:24:42.219Z,49.10
2018-02-23T17:27:09.697Z,48.80
2018-02-23T17:29:37.186Z,49.00
2018-02-23T17:32:04.657Z,49.20
2018-02-23T17:34:32.909Z,49.40
2018-02-23T17:37:00.368Z,49.40
2018-02-23T17:39:28.038Z,49.40
2018-02-23T17:41:56.270Z,50.00
2018-02-23T17:44:23.766Z,49.80
2018-02-23T17:46:51.230Z,49.80
2018-02-23T17:49:18.684Z,50.10
2018-02-23T17:51:46.145Z,50.00
2018-02-23T17:54:13.606Z,50.00
2018-02-23T17:56:41.856Z,50.20
2018-02-23T17:59:09.333Z,50.20
2018-02-23T18:01:36.818Z,50.40
2018-02-23T18:04:04.295Z,50.00
2018-02-23T18:06:31.815Z,50.50
2018-02-23T18:09:00.172Z,53.30
2018-02-23T18:11:29.956Z,51.50
2018-02-23T18:13:57.424Z,51.40
2018-02-23T18:16:24.888Z,50.70
2018-02-23T18:18:52.513Z,50.70
2018-02-23T18:21:20.738Z,50.50
2018-02-23T18:23:48.197Z,50.50
2018-02-23T18:26:15.694Z,50.60
2018-02-23T18:28:43.153Z,51.40
2018-02-23T18:31:10.615Z,50.60
2018-02-23T18:33:38.108Z,50.60
2018-02-23T18:36:05.562Z,50.50
2018-02-23T18:38:33.071Z,50.50
2018-02-23T18:41:01.285Z,51.40
2018-02-23T18:43:28.757Z,51.30
2018-02-23T18:45:56.228Z,51.40
2018-02-23T18:48:23.738Z,51.70
2018-02-23T18:50:51.273Z,52.20
2018-02-23T18:53:19.399Z,52.40
2018-02-23T18:55:46.887Z,52.50
2018-02-23T18:58:15.131Z,52.80
2018-02-23T19:00:42.874Z,53.40
2018-02-23T19:03:10.357Z,53.90
2018-02-23T19:05:38.644Z,54.00
2018-02-23T19:08:06.476Z,54.30
2018-02-23T19:10:34.234Z,54.80
2018-02-23T19:13:01.918Z,55.40
2018-02-23T19:15:30.195Z,55.50
2018-02-23T19:17:57.681Z,55.50
2018-02-23T19:20:26.228Z,55.90
2018-02-23T19:22:53.708Z,55.90
2018-02-23T19:25:21.406Z,56.30
2018-02-23T19:27:48.890Z,57.00
2018-02-23T19:30:16.617Z,56.40
2018-02-23T19:32:44.258Z,56.90
2018-02-23T19:35:11.730Z,57.20
2018-02-23T19:37:39.994Z,57.80
2018-02-23T19:40:08.247Z,58.30
2018-02-23T19:42:35.779Z,57.90
2018-02-23T19:45:04.163Z,58.40
2018-02-23T19:47:31.664Z,58.40
2018-02-23T19:50:00.459Z,58.40
2018-02-23T19:52:28.840Z,59.10
2018-02-23T19:54:56.330Z,59.00
2018-02-23T19:57:23.898Z,59.10
2018-02-23T19:59:51.457Z,59.20
2018-02-23T20:02:19.169Z,58.90
2018-02-23T20:04:47.434Z,59.30
2018-02-23T20:07:15.709Z,58.80
2018-02-23T20:09:43.223Z,58.80
2018-02-23T20:12:10.748Z,59.50
2018-02-23T20:14:38.301Z,59.10
2018-02-23T20:17:06.599Z,59.30
2018-02-23T20:19:34.831Z,59.30
2018-02-23T20:22:02.451Z,59.70
2018-02-23T20:24:29.999Z,59.90
2018-02-23T20:26:58.334Z,60.40
2018-02-23T20:29:25.859Z,60.40
2018-02-23T20:31:53.397Z,60.50
2018-02-23T20:34:20.987Z,60.90
2018-02-23T20:36:49.310Z,61.20
2018-02-23T20:39:17.031Z,61.20
2018-02-23T20:41:44.568Z,61.30
2018-02-23T20:44:12.298Z,61.00
2018-02-23T20:46:40.877Z,61.00
2018-02-23T20:49:09.132Z,61.20
2018-02-23T20:51:36.799Z,61.20
2018-02-23T20:54:04.439Z,61.70
2018-02-23T20:56:31.965Z,62.30
2018-02-23T20:58:59.473Z,62.10
2018-02-23T21:01:27.025Z,62.40
2018-02-23T21:03:54.552Z,62.00
2018-02-23T21:06:22.038Z,63.10
2018-02-23T21:08:50.484Z,63.50
2018-02-23T21:11:18.615Z,63.50
2018-02-23T21:13:46.857Z,64.30
2018-02-23T21:16:14.340Z,64.30
2018-02-23T21:18:42.694Z,64.60
2018-02-23T21:21:10.221Z,64.60
2018-02-23T21:23:37.755Z,64.30
2018-02-23T21:26:06.026Z,63.40
2018-02-23T21:28:33.569Z,63.40
2018-02-23T21:31:01.842Z,63.60
2018-02-23T21:33:30.217Z,63.70
2018-02-23T21:35:57.710Z,63.60
2018-02-23T21:38:25.223Z,63.70
2018-02-23T21:40:52.700Z,64.00
2018-02-23T21:43:21.070Z,64.00
2018-02-23T21:45:49.340Z,63.10
2018-02-23T21:48:17.639Z,63.10
2018-02-23T21:50:45.898Z,63.50
2018-02-23T21:53:13.381Z,63.40
2018-02-23T21:55:41.920Z,63.50
2018-02-23T21:58:10.225Z,63.20
2018-02-23T22:00:38.504Z,63.40
2018-02-23T22:03:06.717Z,63.40
2018-02-23T22:05:34.385Z,63.20
2018-02-23T22:08:01.941Z,62.80
2018-02-23T22:10:29.673Z,62.90
2018-02-23T22:12:59.326Z,62.20
2018-02-23T22:15:26.807Z,62.10
2018-02-23T22:17:54.493Z,61.70
2018-02-23T22:20:22.733Z,61.70
2018-02-23T22:22:50.262Z,61.70
2018-02-23T22:25:17.808Z,61.50
2018-02-23T22:27:45.344Z,61.50
2018-02-23T22:30:13.053Z,61.90
2018-02-23T22:32:40.645Z,61.20
2018-02-23T22:35:08.897Z,60.30
2018-02-23T22:37:36.512Z,60.80
2018-02-23T22:40:04.081Z,61.40
2018-02-23T22:42:32.205Z,60.80
2018-02-23T22:44:59.720Z,60.90
2018-02-23T22:47:27.351Z,60.90
2018-02-23T22:49:55.583Z,60.60
2018-02-23T22:52:23.079Z,60.60
2018-02-23T22:54:51.352Z,60.80
2018-02-23T22:57:19.596Z,60.70
2018-02-23T22:59:47.252Z,60.60
2018-02-23T23:02:14.793Z,60.40
2018-02-23T23:04:42.290Z,60.00
2018-02-23T23:07:14.673Z,59.50
2018-02-23T23:09:42.940Z,59.20
2018-02-23T23:12:10.505Z,59.20
2018-02-23T23:14:38.181Z,59.10
2018-02-23T23:17:05.726Z,59.30
2018-02-23T23:19:34.011Z,58.60
2018-02-23T23:22:01.538Z,58.60
2018-02-23T23:24:29.028Z,58.80
2018-02-23T23:26:57.332Z,58.50
2018-02-23T23:29:24.876Z,58.50
2018-02-23T23:31:52.350Z,58.40
2018-02-23T23:34:19.823Z,57.90
2018-02-23T23:36:47.301Z,58.20
2018-02-23T23:39:14.790Z,57.70
2018-02-23T23:41:43.015Z,57.00
2018-02-23T23:44:10.477Z,57.00
2018-02-23T23:46:38.133Z,57.20
2018-02-23T23:49:05.629Z,56.30
2018-02-23T23:51:33.873Z,56.70
2018-02-23T23:54:01.358Z,56.10
2018-02-23T23:56:28.825Z,55.80
2018-02-23T23:58:58.629Z,56.00
